Terminal Aerodrome Forecast
Issued by NWS

Home | Current Version | Previous Version | Text Only | Print | Product List | Glossary On
Versions: 1 2 3 4 5 6 7 8 9 10 11 12 13 14 15 16 17 18 19
603
FTUS43 KLSX 100526
TAFCPS
TAF
KCPS 100526Z 1006/1106 31012G20KT P6SM BKN040
     FM101000 31010KT P6SM SCT050
     FM102000 29008KT P6SM VCSH BKN050
     FM102200 30006KT 3SM -SN BKN040
     FM110200 03005KT 2SM -SN OVC030=

USA.gov is the U.S. government's official web portal to all federal, state and local government web resources and services.